sensor_id;sensor_type;location;lat;lon;timestamp;pressure;altitude;pressure_sealevel;temperature;humidity
72558;BME280;60583;50.094;8.748;2023-04-01T00:01:54;98774.38;;;10.34;77.69
72558;BME280;60583;50.094;8.748;2023-04-01T00:04:20;98783.41;;;10.44;77.86
72558;BME280;60583;50.094;8.748;2023-04-01T00:06:46;98787.53;;;10.52;77.92
72558;BME280;60583;50.094;8.748;2023-04-01T00:09:13;98801.56;;;10.47;78.38
72558;BME280;60583;50.094;8.748;2023-04-01T00:11:42;98797.38;;;10.51;78.16
72558;BME280;60583;50.094;8.748;2023-04-01T00:14:08;98781.50;;;10.45;77.73
72558;BME280;60583;50.094;8.748;2023-04-01T00:16:33;98778.94;;;10.50;77.73
72558;BME280;60583;50.094;8.748;2023-04-01T00:18:59;98782.78;;;10.54;77.07
72558;BME280;60583;50.094;8.748;2023-04-01T00:21:25;98780.94;;;10.54;77.78
72558;BME280;60583;50.094;8.748;2023-04-01T00:23:51;98783.81;;;10.53;77.53
72558;BME280;60583;50.094;8.748;2023-04-01T00:26:16;98748.78;;;10.33;77.09
72558;BME280;60583;50.094;8.748;2023-04-01T00:28:44;98782.53;;;10.55;78.05
72558;BME280;60583;50.094;8.748;2023-04-01T00:31:10;98786.00;;;10.56;77.06
72558;BME280;60583;50.094;8.748;2023-04-01T00:33:36;98766.03;;;10.42;77.64
72558;BME280;60583;50.094;8.748;2023-04-01T00:36:16;98782.78;;;10.42;77.67
72558;BME280;60583;50.094;8.748;2023-04-01T00:38:43;98768.44;;;10.43;77.39
72558;BME280;60583;50.094;8.748;2023-04-01T00:41:10;98780.47;;;10.46;77.15
72558;BME280;60583;50.094;8.748;2023-04-01T00:43:40;98778.84;;;10.45;76.89
72558;BME280;60583;50.094;8.748;2023-04-01T00:46:06;98783.25;;;10.51;76.84
72558;BME280;60583;50.094;8.748;2023-04-01T00:48:36;98732.88;;;10.38;76.52
72558;BME280;60583;50.094;8.748;2023-04-01T00:51:07;98805.28;;;10.46;77.29
72558;BME280;60583;50.094;8.748;2023-04-01T00:53:38;98779.44;;;10.47;77.22
72558;BME280;60583;50.094;8.748;2023-04-01T00:56:12;98751.94;;;10.30;77.05
72558;BME280;60583;50.094;8.748;2023-04-01T00:58:41;98752.72;;;10.30;77.34
72558;BME280;60583;50.094;8.748;2023-04-01T01:01:09;98772.63;;;10.39;77.04
72558;BME280;60583;50.094;8.748;2023-04-01T01:03:35;98757.38;;;10.23;77.31
72558;BME280;60583;50.094;8.748;2023-04-01T01:06:16;98757.72;;;10.27;77.15
72558;BME280;60583;50.094;8.748;2023-04-01T01:11:48;98770.66;;;10.35;77.16
72558;BME280;60583;50.094;8.748;2023-04-01T01:14:36;98783.50;;;10.38;76.97
72558;BME280;60583;50.094;8.748;2023-04-01T01:22:39;98757.28;;;10.30;76.95
72558;BME280;60583;50.094;8.748;2023-04-01T01:27:39;98770.81;;;10.28;76.08
72558;BME280;60583;50.094;8.748;2023-04-01T01:30:18;98814.78;;;10.42;75.98
72558;BME280;60583;50.094;8.748;2023-04-01T01:37:58;98787.00;;;10.38;75.83
72558;BME280;60583;50.094;8.748;2023-04-01T01:40:29;98795.56;;;10.40;75.76
72558;BME280;60583;50.094;8.748;2023-04-01T01:43:02;98712.38;;;9.98;75.08
72558;BME280;60583;50.094;8.748;2023-04-01T01:45:30;98740.28;;;10.19;76.09
72558;BME280;60583;50.094;8.748;2023-04-01T01:47:58;98772.53;;;10.34;75.58
72558;BME280;60583;50.094;8.748;2023-04-01T01:50:25;98796.94;;;10.43;76.39
72558;BME280;60583;50.094;8.748;2023-04-01T01:53:01;98809.44;;;10.42;75.89
72558;BME280;60583;50.094;8.748;2023-04-01T01:55:32;98764.47;;;10.17;75.96
72558;BME280;60583;50.094;8.748;2023-04-01T01:57:59;98791.75;;;10.36;75.91
72558;BME280;60583;50.094;8.748;2023-04-01T02:00:25;98776.47;;;10.32;76.02
72558;BME280;60583;50.094;8.748;2023-04-01T02:02:51;98676.59;;;9.66;76.28
72558;BME280;60583;50.094;8.748;2023-04-01T02:05:23;98805.88;;;10.37;76.03
72558;BME280;60583;50.094;8.748;2023-04-01T02:08:14;98791.03;;;10.41;75.80
72558;BME280;60583;50.094;8.748;2023-04-01T02:10:47;98749.75;;;10.15;75.47
72558;BME280;60583;50.094;8.748;2023-04-01T02:13:21;98765.47;;;10.28;76.25
72558;BME280;60583;50.094;8.748;2023-04-01T02:15:50;98728.81;;;9.95;76.28
72558;BME280;60583;50.094;8.748;2023-04-01T02:18:21;98784.38;;;10.27;75.92
72558;BME280;60583;50.094;8.748;2023-04-01T02:20:48;98765.59;;;10.10;76.14
72558;BME280;60583;50.094;8.748;2023-04-01T02:23:14;98778.34;;;10.31;76.43
72558;BME280;60583;50.094;8.748;2023-04-01T02:25:44;98772.22;;;10.19;76.64
72558;BME280;60583;50.094;8.748;2023-04-01T02:28:12;98774.75;;;10.25;76.36
72558;BME280;60583;50.094;8.748;2023-04-01T02:30:44;98783.09;;;10.29;76.32
72558;BME280;60583;50.094;8.748;2023-04-01T02:33:13;98796.16;;;10.31;76.79
72558;BME280;60583;50.094;8.748;2023-04-01T02:35:39;98775.81;;;10.24;77.06
72558;BME280;60583;50.094;8.748;2023-04-01T02:38:05;98760.53;;;10.08;76.81
72558;BME280;60583;50.094;8.748;2023-04-01T02:40:47;98784.16;;;10.16;77.26
72558;BME280;60583;50.094;8.748;2023-04-01T02:43:22;98796.31;;;10.24;76.62
72558;BME280;60583;50.094;8.748;2023-04-01T02:45:48;98780.53;;;10.22;76.84
72558;BME280;60583;50.094;8.748;2023-04-01T02:48:14;98798.41;;;10.22;76.93
72558;BME280;60583;50.094;8.748;2023-04-01T02:50:42;98811.22;;;10.25;76.88
72558;BME280;60583;50.094;8.748;2023-04-01T02:53:08;98693.94;;;9.57;77.02
72558;BME280;60583;50.094;8.748;2023-04-01T02:55:33;98759.63;;;10.14;76.79
72558;BME280;60583;50.094;8.748;2023-04-01T02:57:59;98762.06;;;10.04;76.91
72558;BME280;60583;50.094;8.748;2023-04-01T03:00:25;98744.00;;;9.95;77.35
72558;BME280;60583;50.094;8.748;2023-04-01T03:02:51;98773.16;;;10.13;77.80
72558;BME280;60583;50.094;8.748;2023-04-01T03:05:17;98781.94;;;10.25;77.65
72558;BME280;60583;50.094;8.748;2023-04-01T03:07:43;98766.25;;;10.12;77.42
72558;BME280;60583;50.094;8.748;2023-04-01T03:10:09;98768.06;;;10.00;77.63
72558;BME280;60583;50.094;8.748;2023-04-01T03:12:35;98769.34;;;9.97;78.36
72558;BME280;60583;50.094;8.748;2023-04-01T03:15:01;98737.78;;;9.89;78.70
72558;BME280;60583;50.094;8.748;2023-04-01T03:17:26;98785.06;;;10.10;78.55
72558;BME280;60583;50.094;8.748;2023-04-01T03:19:52;98733.72;;;9.75;78.35
72558;BME280;60583;50.094;8.748;2023-04-01T03:22:17;98787.06;;;10.03;78.52
72558;BME280;60583;50.094;8.748;2023-04-01T03:24:46;98738.03;;;9.76;78.41
72558;BME280;60583;50.094;8.748;2023-04-01T03:27:12;98778.03;;;10.04;78.42
72558;BME280;60583;50.094;8.748;2023-04-01T03:29:38;98770.41;;;9.96;79.11
72558;BME280;60583;50.094;8.748;2023-04-01T03:32:04;98749.81;;;9.80;78.79
72558;BME280;60583;50.094;8.748;2023-04-01T03:34:29;98784.03;;;10.11;78.96
72558;BME280;60583;50.094;8.748;2023-04-01T03:36:55;98780.09;;;10.02;78.98
72558;BME280;60583;50.094;8.748;2023-04-01T03:39:20;98770.63;;;10.06;79.06
72558;BME280;60583;50.094;8.748;2023-04-01T03:41:47;98757.69;;;9.87;79.12
72558;BME280;60583;50.094;8.748;2023-04-01T03:44:13;98748.53;;;9.94;78.57
72558;BME280;60583;50.094;8.748;2023-04-01T03:46:38;98693.47;;;9.60;79.25
72558;BME280;60583;50.094;8.748;2023-04-01T03:49:08;98769.34;;;9.97;79.31
72558;BME280;60583;50.094;8.748;2023-04-01T03:51:41;98758.78;;;10.02;78.77
72558;BME280;60583;50.094;8.748;2023-04-01T03:54:08;98730.72;;;9.83;78.98
72558;BME280;60583;50.094;8.748;2023-04-01T03:56:34;98779.53;;;10.00;78.80
72558;BME280;60583;50.094;8.748;2023-04-01T03:59:02;98763.53;;;10.00;78.57
72558;BME280;60583;50.094;8.748;2023-04-01T04:01:28;98751.28;;;9.99;78.99
72558;BME280;60583;50.094;8.748;2023-04-01T04:03:55;98744.09;;;10.00;79.03
72558;BME280;60583;50.094;8.748;2023-04-01T04:06:22;98744.34;;;9.98;78.80
72558;BME280;60583;50.094;8.748;2023-04-01T04:08:48;98734.41;;;9.82;78.42
72558;BME280;60583;50.094;8.748;2023-04-01T04:11:13;98742.81;;;10.02;78.44
72558;BME280;60583;50.094;8.748;2023-04-01T04:13:39;98754.06;;;10.04;78.92
72558;BME280;60583;50.094;8.748;2023-04-01T04:16:05;98750.13;;;9.95;78.43
72558;BME280;60583;50.094;8.748;2023-04-01T04:18:30;98770.84;;;10.16;78.62
72558;BME280;60583;50.094;8.748;2023-04-01T04:20:56;98768.41;;;10.03;78.39
72558;BME280;60583;50.094;8.748;2023-04-01T04:23:22;98699.28;;;9.69;78.20
72558;BME280;60583;50.094;8.748;2023-04-01T04:26:05;98739.72;;;9.94;78.65
72558;BME280;60583;50.094;8.748;2023-04-01T04:28:32;98747.56;;;10.00;78.83
72558;BME280;60583;50.094;8.748;2023-04-01T04:30:57;98737.38;;;10.09;78.97
72558;BME280;60583;50.094;8.748;2023-04-01T04:33:23;98702.34;;;9.89;78.74
72558;BME280;60583;50.094;8.748;2023-04-01T04:35:50;98685.81;;;9.75;78.33
72558;BME280;60583;50.094;8.748;2023-04-01T04:38:16;98745.13;;;10.10;78.61
72558;BME280;60583;50.094;8.748;2023-04-01T04:40:42;98751.41;;;10.16;78.40
72558;BME280;60583;50.094;8.748;2023-04-01T04:43:12;98672.34;;;9.53;78.44
72558;BME280;60583;50.094;8.748;2023-04-01T04:45:38;98779.88;;;10.15;78.86
72558;BME280;60583;50.094;8.748;2023-04-01T04:48:04;98773.16;;;10.13;78.65
72558;BME280;60583;50.094;8.748;2023-04-01T04:50:29;98774.41;;;10.10;79.14
72558;BME280;60583;50.094;8.748;2023-04-01T04:52:55;98690.13;;;9.76;78.18
72558;BME280;60583;50.094;8.748;2023-04-01T04:55:21;98740.66;;;9.99;79.07
72558;BME280;60583;50.094;8.748;2023-04-01T04:57:46;98722.84;;;9.88;78.56
72558;BME280;60583;50.094;8.748;2023-04-01T05:00:12;98751.97;;;10.06;78.41
72558;BME280;60583;50.094;8.748;2023-04-01T05:02:38;98713.09;;;9.82;79.71
72558;BME280;60583;50.094;8.748;2023-04-01T05:05:04;98735.69;;;9.91;79.02
72558;BME280;60583;50.094;8.748;2023-04-01T05:07:29;98766.31;;;10.05;79.25
72558;BME280;60583;50.094;8.748;2023-04-01T05:09:55;98755.81;;;9.99;78.52
72558;BME280;60583;50.094;8.748;2023-04-01T05:12:21;98743.16;;;10.06;78.73
72558;BME280;60583;50.094;8.748;2023-04-01T05:14:46;98735.78;;;9.96;79.02
72558;BME280;60583;50.094;8.748;2023-04-01T05:17:12;98739.38;;;10.02;78.86
72558;BME280;60583;50.094;8.748;2023-04-01T05:19:38;98739.94;;;10.04;78.41
72558;BME280;60583;50.094;8.748;2023-04-01T05:22:04;98739.13;;;10.03;79.32
72558;BME280;60583;50.094;8.748;2023-04-01T05:24:30;98724.31;;;9.96;78.09
72558;BME280;60583;50.094;8.748;2023-04-01T05:26:55;98698.41;;;9.80;78.56
72558;BME280;60583;50.094;8.748;2023-04-01T05:29:23;98751.63;;;10.14;78.60
72558;BME280;60583;50.094;8.748;2023-04-01T05:31:50;98765.06;;;10.19;78.86
72558;BME280;60583;50.094;8.748;2023-04-01T05:34:15;98714.38;;;9.91;79.03
72558;BME280;60583;50.094;8.748;2023-04-01T05:36:42;98765.75;;;10.15;79.28
72558;BME280;60583;50.094;8.748;2023-04-01T05:39:07;98721.59;;;9.79;79.50
72558;BME280;60583;50.094;8.748;2023-04-01T05:41:37;98721.31;;;9.92;80.49
72558;BME280;60583;50.094;8.748;2023-04-01T05:44:04;98663.28;;;9.54;80.47
72558;BME280;60583;50.094;8.748;2023-04-01T05:46:29;98698.69;;;9.67;81.26
72558;BME280;60583;50.094;8.748;2023-04-01T05:48:55;98757.31;;;9.95;81.18
72558;BME280;60583;50.094;8.748;2023-04-01T05:51:21;98722.63;;;9.78;81.75
72558;BME280;60583;50.094;8.748;2023-04-01T05:53:46;98741.16;;;9.73;83.28
72558;BME280;60583;50.094;8.748;2023-04-01T05:56:12;98750.16;;;9.72;83.48
72558;BME280;60583;50.094;8.748;2023-04-01T05:58:38;98733.41;;;9.60;85.80
72558;BME280;60583;50.094;8.748;2023-04-01T06:01:06;98753.19;;;9.76;85.16
72558;BME280;60583;50.094;8.748;2023-04-01T06:03:35;98772.06;;;9.74;86.31
72558;BME280;60583;50.094;8.748;2023-04-01T06:06:01;98759.09;;;9.66;86.44
72558;BME280;60583;50.094;8.748;2023-04-01T06:08:28;98760.47;;;9.69;86.46
72558;BME280;60583;50.094;8.748;2023-04-01T06:19:05;98737.94;;;9.48;86.69
72558;BME280;60583;50.094;8.748;2023-04-01T06:21:45;98761.16;;;9.52;86.67
72558;BME280;60583;50.094;8.748;2023-04-01T06:32:43;98757.72;;;9.63;86.82
72558;BME280;60583;50.094;8.748;2023-04-01T06:35:28;98768.34;;;9.63;87.60
72558;BME280;60583;50.094;8.748;2023-04-01T06:38:30;98770.78;;;9.65;87.01
72558;BME280;60583;50.094;8.748;2023-04-01T06:44:29;98765.22;;;9.55;86.68
72558;BME280;60583;50.094;8.748;2023-04-01T06:50:01;98766.94;;;9.73;85.95
72558;BME280;60583;50.094;8.748;2023-04-01T06:53:01;98771.25;;;9.74;85.08
72558;BME280;60583;50.094;8.748;2023-04-01T06:58:46;98755.69;;;9.82;85.03
72558;BME280;60583;50.094;8.748;2023-04-01T07:01:37;98774.59;;;9.81;84.39
72558;BME280;60583;50.094;8.748;2023-04-01T07:04:14;98771.81;;;9.76;85.45
72558;BME280;60583;50.094;8.748;2023-04-01T07:09:28;98761.88;;;9.71;85.10
72558;BME280;60583;50.094;8.748;2023-04-01T07:12:01;98772.16;;;9.79;85.17
72558;BME280;60583;50.094;8.748;2023-04-01T07:14:39;98770.88;;;9.82;84.98
72558;BME280;60583;50.094;8.748;2023-04-01T07:17:14;98754.56;;;9.78;85.76
72558;BME280;60583;50.094;8.748;2023-04-01T07:22:33;98767.31;;;9.76;86.00
72558;BME280;60583;50.094;8.748;2023-04-01T07:25:23;98768.22;;;9.82;86.17
72558;BME280;60583;50.094;8.748;2023-04-01T07:27:53;98774.34;;;9.82;86.92
72558;BME280;60583;50.094;8.748;2023-04-01T07:30:23;98784.88;;;9.77;86.85
72558;BME280;60583;50.094;8.748;2023-04-01T07:46:38;98754.22;;;9.86;85.80
72558;BME280;60583;50.094;8.748;2023-04-01T07:49:14;98765.44;;;9.88;86.61
72558;BME280;60583;50.094;8.748;2023-04-01T07:54:49;98791.44;;;10.09;86.33
72558;BME280;60583;50.094;8.748;2023-04-01T07:57:24;98784.97;;;10.05;86.46
72558;BME280;60583;50.094;8.748;2023-04-01T08:03:31;98804.31;;;10.12;86.55
72558;BME280;60583;50.094;8.748;2023-04-01T08:06:19;98797.81;;;10.20;85.79
72558;BME280;60583;50.094;8.748;2023-04-01T08:08:58;98801.75;;;10.17;85.82
72558;BME280;60583;50.094;8.748;2023-04-01T08:14:36;98792.25;;;10.21;85.44
72558;BME280;60583;50.094;8.748;2023-04-01T08:17:16;98792.72;;;10.18;85.96
72558;BME280;60583;50.094;8.748;2023-04-01T08:19:52;98817.81;;;10.34;85.60
72558;BME280;60583;50.094;8.748;2023-04-01T08:22:30;98815.16;;;10.34;85.03
72558;BME280;60583;50.094;8.748;2023-04-01T08:25:01;98809.69;;;10.41;84.83
72558;BME280;60583;50.094;8.748;2023-04-01T08:27:37;98810.41;;;10.36;85.04
72558;BME280;60583;50.094;8.748;2023-04-01T08:30:23;98826.16;;;10.38;85.42
72558;BME280;60583;50.094;8.748;2023-04-01T08:32:59;98803.84;;;10.15;85.23
72558;BME280;60583;50.094;8.748;2023-04-01T08:35:34;98803.38;;;10.18;85.84
72558;BME280;60583;50.094;8.748;2023-04-01T08:38:17;98804.19;;;10.19;86.03
72558;BME280;60583;50.094;8.748;2023-04-01T08:41:00;98803.13;;;10.08;86.79
72558;BME280;60583;50.094;8.748;2023-04-01T08:43:41;98822.00;;;10.30;87.50
72558;BME280;60583;50.094;8.748;2023-04-01T08:51:54;98820.72;;;10.33;88.03
72558;BME280;60583;50.094;8.748;2023-04-01T08:57:08;98828.34;;;10.41;88.91
72558;BME280;60583;50.094;8.748;2023-04-01T09:02:39;98833.22;;;10.44;89.60
72558;BME280;60583;50.094;8.748;2023-04-01T09:05:29;98827.31;;;10.42;89.76
72558;BME280;60583;50.094;8.748;2023-04-01T09:10:46;98827.31;;;10.30;90.50
72558;BME280;60583;50.094;8.748;2023-04-01T09:13:33;98809.50;;;10.07;92.09
72558;BME280;60583;50.094;8.748;2023-04-01T09:16:06;98839.84;;;10.30;92.36
72558;BME280;60583;50.094;8.748;2023-04-01T09:18:57;98840.31;;;10.27;93.34
72558;BME280;60583;50.094;8.748;2023-04-01T09:44:39;98851.22;;;10.65;91.45
72558;BME280;60583;50.094;8.748;2023-04-01T10:01:23;98863.66;;;10.87;93.67
72558;BME280;60583;50.094;8.748;2023-04-01T10:07:06;98832.75;;;10.75;93.69
72558;BME280;60583;50.094;8.748;2023-04-01T10:15:34;98869.31;;;10.91;94.94
72558;BME280;60583;50.094;8.748;2023-04-01T10:18:36;98867.31;;;10.98;95.31
72558;BME280;60583;50.094;8.748;2023-04-01T10:29:27;98845.78;;;10.88;93.96
72558;BME280;60583;50.094;8.748;2023-04-01T10:34:56;98875.28;;;11.10;93.40
72558;BME280;60583;50.094;8.748;2023-04-01T10:37:58;98874.66;;;11.19;94.21
72558;BME280;60583;50.094;8.748;2023-04-01T10:40:56;98860.13;;;10.99;94.63
72558;BME280;60583;50.094;8.748;2023-04-01T10:46:44;98857.31;;;11.05;94.37
72558;BME280;60583;50.094;8.748;2023-04-01T10:49:41;98872.03;;;11.08;95.17
72558;BME280;60583;50.094;8.748;2023-04-01T11:13:37;98871.19;;;11.35;93.96
72558;BME280;60583;50.094;8.748;2023-04-01T11:21:46;98883.75;;;11.51;95.25
72558;BME280;60583;50.094;8.748;2023-04-01T11:27:45;98877.03;;;11.49;94.65
72558;BME280;60583;50.094;8.748;2023-04-01T11:30:22;98854.31;;;11.46;93.46
72558;BME280;60583;50.094;8.748;2023-04-01T11:46:46;98829.09;;;11.37;93.14
72558;BME280;60583;50.094;8.748;2023-04-01T11:55:24;98869.41;;;11.69;91.13
72558;BME280;60583;50.094;8.748;2023-04-01T12:03:41;98883.47;;;11.81;87.54
72558;BME280;60583;50.094;8.748;2023-04-01T12:08:44;98888.16;;;11.91;86.65
72558;BME280;60583;50.094;8.748;2023-04-01T12:11:32;98892.84;;;11.84;87.21
72558;BME280;60583;50.094;8.748;2023-04-01T12:16:58;98857.22;;;11.62;87.68
72558;BME280;60583;50.094;8.748;2023-04-01T12:26:03;98878.78;;;11.72;87.89
72558;BME280;60583;50.094;8.748;2023-04-01T12:39:30;98908.66;;;11.85;88.20
72558;BME280;60583;50.094;8.748;2023-04-01T12:45:28;98925.56;;;11.74;89.61
72558;BME280;60583;50.094;8.748;2023-04-01T12:48:05;98920.94;;;11.70;90.11
72558;BME280;60583;50.094;8.748;2023-04-01T12:53:35;98913.53;;;11.60;91.00
72558;BME280;60583;50.094;8.748;2023-04-01T12:59:05;98930.03;;;11.57;92.96
72558;BME280;60583;50.094;8.748;2023-04-01T13:04:53;98920.41;;;11.56;94.00
72558;BME280;60583;50.094;8.748;2023-04-01T13:10:30;98918.53;;;11.40;94.89
72558;BME280;60583;50.094;8.748;2023-04-01T13:13:16;98898.94;;;11.34;95.45
72558;BME280;60583;50.094;8.748;2023-04-01T13:16:37;98940.72;;;11.57;95.16
72558;BME280;60583;50.094;8.748;2023-04-01T13:19:03;98939.75;;;11.63;95.81
72558;BME280;60583;50.094;8.748;2023-04-01T13:21:56;98942.31;;;11.70;95.78
72558;BME280;60583;50.094;8.748;2023-04-01T13:24:38;98947.53;;;11.65;96.69
72558;BME280;60583;50.094;8.748;2023-04-01T13:33:14;98942.41;;;11.75;94.85
72558;BME280;60583;50.094;8.748;2023-04-01T13:44:37;98918.06;;;11.60;93.83
72558;BME280;60583;50.094;8.748;2023-04-01T13:53:09;98954.84;;;12.19;92.00
72558;BME280;60583;50.094;8.748;2023-04-01T13:55:52;98953.56;;;12.22;91.70
72558;BME280;60583;50.094;8.748;2023-04-01T13:58:50;98955.16;;;12.39;91.31
72558;BME280;60583;50.094;8.748;2023-04-01T14:01:42;98950.97;;;12.43;91.50
72558;BME280;60583;50.094;8.748;2023-04-01T14:10:02;98958.91;;;12.05;92.62
72558;BME280;60583;50.094;8.748;2023-04-01T14:12:43;98962.06;;;12.02;91.55
72558;BME280;60583;50.094;8.748;2023-04-01T14:18:36;98960.53;;;11.73;94.00
72558;BME280;60583;50.094;8.748;2023-04-01T14:24:32;98980.50;;;11.59;94.96
72558;BME280;60583;50.094;8.748;2023-04-01T14:35:12;98973.56;;;11.29;96.65
72558;BME280;60583;50.094;8.748;2023-04-01T14:38:17;98983.69;;;11.27;96.70
72558;BME280;60583;50.094;8.748;2023-04-01T14:49:22;98992.53;;;11.16;97.75
72558;BME280;60583;50.094;8.748;2023-04-01T14:51:50;98978.03;;;11.12;98.98
72558;BME280;60583;50.094;8.748;2023-04-01T14:54:19;98968.44;;;11.00;98.65
72558;BME280;60583;50.094;8.748;2023-04-01T14:57:01;98980.13;;;11.10;97.64
72558;BME280;60583;50.094;8.748;2023-04-01T14:59:29;98961.94;;;11.07;97.21
72558;BME280;60583;50.094;8.748;2023-04-01T15:07:52;99000.47;;;11.39;94.75
72558;BME280;60583;50.094;8.748;2023-04-01T15:10:53;99012.00;;;11.57;93.18
72558;BME280;60583;50.094;8.748;2023-04-01T15:16:21;98980.50;;;11.59;93.01
72558;BME280;60583;50.094;8.748;2023-04-01T15:21:37;98997.78;;;11.68;91.93
72558;BME280;60583;50.094;8.748;2023-04-01T15:24:21;98998.81;;;11.67;92.44
72558;BME280;60583;50.094;8.748;2023-04-01T15:32:44;99016.47;;;11.68;92.40
72558;BME280;60583;50.094;8.748;2023-04-01T15:35:25;99019.06;;;11.63;92.61
72558;BME280;60583;50.094;8.748;2023-04-01T15:38:02;99012.56;;;11.59;92.79
72558;BME280;60583;50.094;8.748;2023-04-01T15:43:36;99003.53;;;11.48;93.33
72558;BME280;60583;50.094;8.748;2023-04-01T15:51:28;99039.47;;;11.69;92.06
72558;BME280;60583;50.094;8.748;2023-04-01T15:54:21;99047.69;;;11.67;92.21
72558;BME280;60583;50.094;8.748;2023-04-01T15:56:59;99050.16;;;11.69;91.78
72558;BME280;60583;50.094;8.748;2023-04-01T15:59:49;99022.81;;;11.50;91.65
72558;BME280;60583;50.094;8.748;2023-04-01T16:02:22;99022.72;;;11.45;91.36
72558;BME280;60583;50.094;8.748;2023-04-01T16:07:42;99055.06;;;11.48;93.67
72558;BME280;60583;50.094;8.748;2023-04-01T16:13:46;99061.22;;;11.49;94.55
72558;BME280;60583;50.094;8.748;2023-04-01T16:16:23;99056.59;;;11.44;94.68
72558;BME280;60583;50.094;8.748;2023-04-01T16:19:12;99062.03;;;11.49;95.13
72558;BME280;60583;50.094;8.748;2023-04-01T16:22:04;99051.16;;;11.39;94.51
72558;BME280;60583;50.094;8.748;2023-04-01T16:24:39;99040.50;;;11.39;94.31
72558;BME280;60583;50.094;8.748;2023-04-01T16:27:14;99064.91;;;11.60;94.18
72558;BME280;60583;50.094;8.748;2023-04-01T16:29:48;99063.75;;;11.55;94.00
72558;BME280;60583;50.094;8.748;2023-04-01T16:35:04;99078.25;;;11.60;94.67
72558;BME280;60583;50.094;8.748;2023-04-01T16:37:46;99072.00;;;11.54;94.78
72558;BME280;60583;50.094;8.748;2023-04-01T16:45:45;99058.50;;;11.32;95.17
72558;BME280;60583;50.094;8.748;2023-04-01T16:48:21;99086.88;;;11.50;95.17
72558;BME280;60583;50.094;8.748;2023-04-01T16:51:18;99095.34;;;11.47;95.01
72558;BME280;60583;50.094;8.748;2023-04-01T16:53:50;99091.41;;;11.38;94.23
72558;BME280;60583;50.094;8.748;2023-04-01T16:56:38;99104.53;;;11.39;95.64
72558;BME280;60583;50.094;8.748;2023-04-01T16:59:24;99100.94;;;11.34;94.05
72558;BME280;60583;50.094;8.748;2023-04-01T17:01:57;99109.31;;;11.37;94.26
72558;BME280;60583;50.094;8.748;2023-04-01T17:04:52;99109.22;;;11.32;93.75
72558;BME280;60583;50.094;8.748;2023-04-01T17:10:06;99100.38;;;11.20;92.56
72558;BME280;60583;50.094;8.748;2023-04-01T17:13:01;99098.22;;;11.17;93.49
72558;BME280;60583;50.094;8.748;2023-04-01T17:18:44;99121.72;;;11.20;93.47
72558;BME280;60583;50.094;8.748;2023-04-01T17:21:20;99123.72;;;11.13;93.51
72558;BME280;60583;50.094;8.748;2023-04-01T17:23:51;99139.59;;;11.31;92.90
72558;BME280;60583;50.094;8.748;2023-04-01T17:26:28;99131.47;;;11.26;92.98
72558;BME280;60583;50.094;8.748;2023-04-01T17:29:19;99138.22;;;11.17;93.75
72558;BME280;60583;50.094;8.748;2023-04-01T17:37:22;99149.00;;;11.11;93.92
72558;BME280;60583;50.094;8.748;2023-04-01T17:42:40;99160.94;;;11.08;93.88
72558;BME280;60583;50.094;8.748;2023-04-01T17:45:28;99115.34;;;10.75;93.39
72558;BME280;60583;50.094;8.748;2023-04-01T17:48:03;99161.78;;;10.97;94.15
72558;BME280;60583;50.094;8.748;2023-04-01T18:01:09;99174.97;;;10.80;93.46
72558;BME280;60583;50.094;8.748;2023-04-01T18:06:19;99205.81;;;10.88;93.37
72558;BME280;60583;50.094;8.748;2023-04-01T18:09:05;99215.91;;;10.86;92.76
72558;BME280;60583;50.094;8.748;2023-04-01T18:11:53;99203.81;;;10.72;93.07
72558;BME280;60583;50.094;8.748;2023-04-01T18:14:54;99222.94;;;10.80;93.48
72558;BME280;60583;50.094;8.748;2023-04-01T18:17:48;99226.75;;;10.73;93.22
72558;BME280;60583;50.094;8.748;2023-04-01T18:22:57;99247.88;;;10.74;93.57
72558;BME280;60583;50.094;8.748;2023-04-01T18:25:33;99248.66;;;10.75;93.36
72558;BME280;60583;50.094;8.748;2023-04-01T18:31:09;99256.91;;;10.73;93.20
72558;BME280;60583;50.094;8.748;2023-04-01T18:33:49;99255.25;;;10.61;93.51
72558;BME280;60583;50.094;8.748;2023-04-01T18:39:40;99278.91;;;10.69;93.77
72558;BME280;60583;50.094;8.748;2023-04-01T18:44:53;99231.59;;;10.35;93.24
72558;BME280;60583;50.094;8.748;2023-04-01T18:51:16;99290.72;;;10.61;92.98
72558;BME280;60583;50.094;8.748;2023-04-01T18:53:49;99288.88;;;10.62;93.34
72558;BME280;60583;50.094;8.748;2023-04-01T18:56:43;99299.06;;;10.65;93.16
72558;BME280;60583;50.094;8.748;2023-04-01T18:59:25;99290.66;;;10.50;93.29
72558;BME280;60583;50.094;8.748;2023-04-01T19:02:14;99302.84;;;10.57;93.34
72558;BME280;60583;50.094;8.748;2023-04-01T19:07:50;99305.03;;;10.49;93.36
72558;BME280;60583;50.094;8.748;2023-04-01T19:10:17;99290.03;;;10.36;93.42
72558;BME280;60583;50.094;8.748;2023-04-01T19:13:01;99318.06;;;10.57;92.76
72558;BME280;60583;50.094;8.748;2023-04-01T19:26:32;99326.94;;;10.51;91.80
72558;BME280;60583;50.094;8.748;2023-04-01T19:29:12;99323.97;;;10.41;92.15
72558;BME280;60583;50.094;8.748;2023-04-01T19:34:51;99338.13;;;10.41;91.48
72558;BME280;60583;50.094;8.748;2023-04-01T19:37:26;99337.44;;;10.46;90.84
72558;BME280;60583;50.094;8.748;2023-04-01T19:43:08;99336.00;;;10.32;91.36
72558;BME280;60583;50.094;8.748;2023-04-01T19:45:44;99303.84;;;10.08;91.08
72558;BME280;60583;50.094;8.748;2023-04-01T19:51:25;99351.84;;;10.27;91.33
72558;BME280;60583;50.094;8.748;2023-04-01T19:54:17;99316.13;;;10.09;90.69
72558;BME280;60583;50.094;8.748;2023-04-01T19:56:57;99343.91;;;10.20;91.22
72558;BME280;60583;50.094;8.748;2023-04-01T20:04:41;99350.94;;;10.14;90.53
72558;BME280;60583;50.094;8.748;2023-04-01T20:17:26;99391.66;;;10.21;90.43
72558;BME280;60583;50.094;8.748;2023-04-01T20:20:02;99393.06;;;10.24;90.67
72558;BME280;60583;50.094;8.748;2023-04-01T20:25:10;99385.38;;;10.09;90.37
72558;BME280;60583;50.094;8.748;2023-04-01T20:27:43;99411.97;;;10.16;90.86
72558;BME280;60583;50.094;8.748;2023-04-01T20:37:21;99381.78;;;9.97;90.39
72558;BME280;60583;50.094;8.748;2023-04-01T20:39:57;99414.66;;;10.16;90.46